createdAt,value
2023-10-31T00:02:28.855Z,10.23
2023-10-31T00:05:14.441Z,10.26
2023-10-31T00:08:00.875Z,9.91
2023-10-31T00:10:46.303Z,10.39
2023-10-31T00:13:31.991Z,10.23
2023-10-31T00:16:18.231Z,10.05
2023-10-31T00:19:05.023Z,9.87
2023-10-31T00:21:50.337Z,10.24
2023-10-31T00:24:36.102Z,10.36
2023-10-31T00:27:22.169Z,10.31
2023-10-31T00:30:08.751Z,10.02
2023-10-31T00:32:54.684Z,9.90
2023-10-31T00:35:40.080Z,10.17
2023-10-31T00:38:29.772Z,9.66
2023-10-31T00:41:15.373Z,9.59
2023-10-31T00:44:01.098Z,9.89
2023-10-31T00:46:48.546Z,8.61
2023-10-31T00:49:33.999Z,9.75
2023-10-31T00:52:19.333Z,9.77
2023-10-31T00:55:07.666Z,9.96
2023-10-31T00:57:53.439Z,9.49
2023-10-31T01:00:38.936Z,9.79
2023-10-31T01:03:24.408Z,9.59
2023-10-31T01:06:09.858Z,9.34
2023-10-31T01:08:55.354Z,9.67
2023-10-31T01:11:40.945Z,9.54
2023-10-31T01:14:26.864Z,9.67
2023-10-31T01:17:12.113Z,9.44
2023-10-31T01:19:57.842Z,9.50
2023-10-31T01:22:43.531Z,9.84
2023-10-31T01:25:28.843Z,9.89
2023-10-31T01:28:14.171Z,9.77
2023-10-31T01:30:59.566Z,9.41
2023-10-31T01:33:45.026Z,9.32
2023-10-31T01:36:30.900Z,9.54
2023-10-31T01:39:16.389Z,9.90
2023-10-31T01:42:02.002Z,9.90
2023-10-31T01:44:47.671Z,9.50
2023-10-31T01:47:33.683Z,9.65
2023-10-31T01:50:19.722Z,9.57
2023-10-31T01:53:05.168Z,9.24
2023-10-31T01:55:52.000Z,9.56
2023-10-31T01:58:38.798Z,9.56
2023-10-31T02:01:24.397Z,9.05
2023-10-31T02:04:09.933Z,9.14
2023-10-31T02:06:55.311Z,9.23
2023-10-31T02:09:41.697Z,9.40
2023-10-31T02:12:37.916Z,9.60
2023-10-31T02:15:23.884Z,9.15
2023-10-31T02:18:09.864Z,9.11
2023-10-31T02:20:57.196Z,8.98
2023-10-31T02:23:42.900Z,9.13
2023-10-31T02:26:35.683Z,9.52
2023-10-31T02:29:21.431Z,9.32
2023-10-31T02:32:07.268Z,9.34
2023-10-31T02:34:53.543Z,9.02
2023-10-31T02:37:39.345Z,9.23
2023-10-31T02:40:25.368Z,9.25
2023-10-31T02:43:10.738Z,8.73
2023-10-31T02:45:56.597Z,8.29
2023-10-31T02:48:42.432Z,8.99
2023-10-31T02:51:27.951Z,8.63
2023-10-31T02:54:14.008Z,8.97
2023-10-31T02:57:00.958Z,9.03
2023-10-31T02:59:46.646Z,8.73
2023-10-31T03:02:32.246Z,8.97
2023-10-31T03:05:17.691Z,8.87
2023-10-31T03:08:03.574Z,8.80
2023-10-31T03:10:50.747Z,8.74
2023-10-31T03:13:36.126Z,8.79
2023-10-31T03:16:21.686Z,8.05
2023-10-31T03:19:09.568Z,8.80
2023-10-31T03:21:54.709Z,8.71
2023-10-31T03:24:40.300Z,8.84
2023-10-31T03:27:25.878Z,8.18
2023-10-31T03:30:12.184Z,8.31
2023-10-31T03:32:57.430Z,8.14
2023-10-31T03:35:42.843Z,8.37
2023-10-31T03:38:28.719Z,8.08
2023-10-31T03:41:14.351Z,8.73
2023-10-31T03:44:00.994Z,8.16
2023-10-31T03:46:46.684Z,7.96
2023-10-31T03:49:32.355Z,8.69
2023-10-31T03:52:18.100Z,8.28
2023-10-31T03:55:04.299Z,8.30
2023-10-31T03:57:49.842Z,8.59
2023-10-31T04:00:35.464Z,8.59
2023-10-31T04:03:21.145Z,8.42
2023-10-31T04:06:06.562Z,8.00
2023-10-31T04:08:52.123Z,7.77
2023-10-31T04:11:38.211Z,8.02
2023-10-31T04:14:23.971Z,8.29
2023-10-31T04:17:09.604Z,7.69
2023-10-31T04:19:55.287Z,8.09
2023-10-31T04:22:40.891Z,8.18
2023-10-31T04:25:26.047Z,8.32
2023-10-31T04:28:11.289Z,8.01
2023-10-31T04:30:56.552Z,8.00
2023-10-31T04:33:41.794Z,8.08
2023-10-31T04:36:27.297Z,8.16
2023-10-31T04:39:12.815Z,7.84
2023-10-31T04:41:59.987Z,7.97
2023-10-31T04:44:45.553Z,7.67
2023-10-31T04:47:31.237Z,7.39
2023-10-31T04:50:17.330Z,7.51
2023-10-31T04:53:03.162Z,7.41
2023-10-31T04:55:48.879Z,7.65
2023-10-31T04:58:34.356Z,7.38
2023-10-31T05:01:19.919Z,7.77
2023-10-31T05:04:12.487Z,7.74
2023-10-31T05:06:59.334Z,7.53
2023-10-31T05:09:47.184Z,7.45
2023-10-31T05:12:33.400Z,7.37
2023-10-31T05:15:19.052Z,7.21
2023-10-31T05:18:05.248Z,7.48
2023-10-31T05:20:50.900Z,7.51
2023-10-31T05:23:36.280Z,6.96
2023-10-31T05:26:21.869Z,6.95
2023-10-31T05:29:07.763Z,7.32
2023-10-31T05:31:53.333Z,7.13
2023-10-31T05:34:39.024Z,7.42
2023-10-31T05:37:24.606Z,6.75
2023-10-31T05:40:11.429Z,7.21
2023-10-31T05:42:58.833Z,7.15
2023-10-31T05:45:45.506Z,6.65
2023-10-31T05:48:32.449Z,7.13
2023-10-31T05:51:20.095Z,6.79
2023-10-31T05:54:08.288Z,6.68
2023-10-31T05:56:54.214Z,7.36
2023-10-31T05:59:40.047Z,7.38
2023-10-31T06:02:26.144Z,6.60
2023-10-31T06:05:11.883Z,7.31
2023-10-31T06:07:57.663Z,6.68
2023-10-31T06:10:43.520Z,6.89
2023-10-31T06:13:29.395Z,6.76
2023-10-31T06:16:15.085Z,7.44
2023-10-31T06:19:00.569Z,7.31
2023-10-31T06:21:46.126Z,6.97
2023-10-31T06:24:31.484Z,7.46
2023-10-31T06:27:16.993Z,7.32
2023-10-31T06:30:11.999Z,7.37
2023-10-31T06:33:06.194Z,7.05
2023-10-31T06:35:52.927Z,6.89
2023-10-31T06:38:38.688Z,6.84
2023-10-31T06:41:28.626Z,7.27
2023-10-31T06:44:13.758Z,6.67
2023-10-31T06:47:01.647Z,7.22
2023-10-31T06:49:47.133Z,6.69
2023-10-31T06:52:32.838Z,7.08
2023-10-31T06:55:18.827Z,6.64
2023-10-31T06:58:04.412Z,7.49
2023-10-31T07:00:49.882Z,7.30
2023-10-31T07:03:35.524Z,7.34
2023-10-31T07:06:21.208Z,7.75
2023-10-31T07:09:06.834Z,7.36
2023-10-31T07:11:53.355Z,7.61
2023-10-31T07:14:39.772Z,7.32
2023-10-31T07:17:26.273Z,6.63
2023-10-31T07:20:12.070Z,7.38
2023-10-31T07:22:57.517Z,6.08
2023-10-31T07:25:43.085Z,6.35
2023-10-31T07:28:28.480Z,7.33
2023-10-31T07:31:14.177Z,7.40
2023-10-31T07:33:59.645Z,7.33
2023-10-31T07:36:45.449Z,6.82
2023-10-31T07:39:30.787Z,7.01
2023-10-31T07:42:16.215Z,7.50
2023-10-31T07:45:01.695Z,7.40
2023-10-31T07:47:47.494Z,6.66
2023-10-31T07:50:33.131Z,7.47
2023-10-31T07:53:18.964Z,7.42
2023-10-31T07:56:04.894Z,6.91
2023-10-31T07:58:50.859Z,7.14
2023-10-31T08:01:37.340Z,7.07
2023-10-31T08:04:22.998Z,7.09
2023-10-31T08:07:08.388Z,7.26
2023-10-31T08:09:54.073Z,7.46
2023-10-31T08:12:39.781Z,7.60
2023-10-31T08:15:25.462Z,7.22
2023-10-31T08:18:11.241Z,7.23
2023-10-31T08:20:56.723Z,7.37
2023-10-31T08:23:42.092Z,7.36
2023-10-31T08:26:30.171Z,7.70
2023-10-31T08:29:15.496Z,7.51
2023-10-31T08:32:04.540Z,6.81
2023-10-31T08:34:56.953Z,7.79
2023-10-31T08:37:43.771Z,7.88
2023-10-31T08:40:29.299Z,7.90
2023-10-31T08:43:14.543Z,8.19
2023-10-31T08:46:00.356Z,7.57
2023-10-31T08:48:45.825Z,7.98
2023-10-31T08:51:31.157Z,8.27
2023-10-31T08:54:19.250Z,8.17
2023-10-31T08:57:04.688Z,8.23
2023-10-31T08:59:50.471Z,8.23
2023-10-31T09:02:35.743Z,8.23
2023-10-31T09:05:21.289Z,8.07
2023-10-31T09:08:06.806Z,8.05
2023-10-31T09:10:52.062Z,8.18
2023-10-31T09:13:37.541Z,8.34
2023-10-31T09:16:22.935Z,8.24
2023-10-31T09:19:08.408Z,7.66
2023-10-31T09:21:54.691Z,8.35
2023-10-31T09:24:40.217Z,8.11
2023-10-31T09:27:25.673Z,7.57
2023-10-31T09:30:11.295Z,7.84
2023-10-31T09:32:57.145Z,7.73
2023-10-31T09:35:42.782Z,7.87
2023-10-31T09:38:28.438Z,8.09
2023-10-31T09:41:14.291Z,8.08
2023-10-31T09:44:00.361Z,7.87
2023-10-31T09:46:55.424Z,8.23
2023-10-31T09:49:40.702Z,7.78
2023-10-31T09:52:35.334Z,8.12
2023-10-31T09:55:25.608Z,6.99
2023-10-31T09:58:11.227Z,6.66
2023-10-31T10:01:03.519Z,7.19
2023-10-31T10:03:50.363Z,8.35
2023-10-31T10:06:35.801Z,7.42
2023-10-31T10:09:22.902Z,8.22
2023-10-31T10:12:08.459Z,7.94
2023-10-31T10:14:54.009Z,5.81
2023-10-31T10:17:39.756Z,7.38
2023-10-31T10:20:24.916Z,6.88
2023-10-31T10:23:11.094Z,8.16
2023-10-31T10:25:58.455Z,8.45
2023-10-31T10:28:48.194Z,8.25
2023-10-31T10:31:33.967Z,8.71
2023-10-31T10:34:19.387Z,8.35
2023-10-31T10:37:07.400Z,7.83
2023-10-31T10:39:53.720Z,8.26
2023-10-31T10:42:46.109Z,7.90
2023-10-31T10:45:32.211Z,7.99
2023-10-31T10:48:20.912Z,8.04
2023-10-31T10:51:12.113Z,7.88
2023-10-31T10:54:09.392Z,8.39
2023-10-31T10:57:00.363Z,7.73
2023-10-31T10:59:52.648Z,7.83
2023-10-31T11:02:38.656Z,8.00
2023-10-31T11:05:27.505Z,7.73
2023-10-31T11:08:13.490Z,7.81
2023-10-31T11:10:59.863Z,7.78
2023-10-31T11:13:45.572Z,8.22
2023-10-31T11:16:41.059Z,7.95
2023-10-31T11:19:29.093Z,8.14
2023-10-31T11:22:14.497Z,8.21
2023-10-31T11:25:02.629Z,8.83
2023-10-31T11:27:47.796Z,8.26
2023-10-31T11:30:35.634Z,8.70
2023-10-31T11:33:22.061Z,8.59
2023-10-31T11:36:08.374Z,8.42
2023-10-31T11:39:13.384Z,8.75
2023-10-31T11:42:01.057Z,8.17
2023-10-31T11:44:58.461Z,6.41
2023-10-31T11:47:51.813Z,8.62
2023-10-31T11:50:38.772Z,8.48
2023-10-31T11:53:24.581Z,8.00
2023-10-31T11:56:11.915Z,8.55
2023-10-31T11:59:04.028Z,8.59
2023-10-31T12:01:49.838Z,8.09
2023-10-31T12:04:35.381Z,8.83
2023-10-31T12:07:21.130Z,8.65
2023-10-31T12:10:08.988Z,8.68
2023-10-31T12:12:57.064Z,8.82
2023-10-31T12:15:56.510Z,8.10
2023-10-31T12:18:52.021Z,8.90
2023-10-31T12:21:47.026Z,8.71
2023-10-31T12:24:35.979Z,8.49
2023-10-31T12:27:30.266Z,8.93
2023-10-31T12:30:34.966Z,8.86
2023-10-31T12:33:23.850Z,8.04
2023-10-31T12:36:09.852Z,8.76
2023-10-31T12:38:56.251Z,8.55
2023-10-31T12:41:42.646Z,8.37
2023-10-31T12:44:29.255Z,8.06
2023-10-31T12:47:23.252Z,8.19
2023-10-31T12:50:09.848Z,8.52
2023-10-31T12:52:56.977Z,8.39
2023-10-31T12:55:43.424Z,7.98
2023-10-31T12:58:28.823Z,8.31
2023-10-31T13:01:14.144Z,8.38
2023-10-31T13:03:59.802Z,8.40
2023-10-31T13:06:56.621Z,8.33
2023-10-31T13:09:41.939Z,8.46
2023-10-31T13:12:27.689Z,8.21
2023-10-31T13:15:18.166Z,8.46
2023-10-31T13:18:03.981Z,8.13
2023-10-31T13:20:49.651Z,8.41
2023-10-31T13:23:35.984Z,8.60
2023-10-31T13:26:21.449Z,8.19
2023-10-31T13:29:07.469Z,8.53
2023-10-31T13:31:52.926Z,8.17
2023-10-31T13:34:38.981Z,8.31
2023-10-31T13:37:25.609Z,8.39
2023-10-31T13:40:11.751Z,8.52
2023-10-31T13:43:02.222Z,8.59
2023-10-31T13:45:48.805Z,8.10
2023-10-31T13:48:34.715Z,8.14
2023-10-31T13:51:22.993Z,8.42
2023-10-31T13:54:09.060Z,7.87
2023-10-31T13:56:54.696Z,7.77
2023-10-31T13:59:41.227Z,8.50
2023-10-31T14:02:26.699Z,8.43
2023-10-31T14:05:14.417Z,8.21
2023-10-31T14:08:00.140Z,8.36
2023-10-31T14:10:46.058Z,8.73
2023-10-31T14:13:32.945Z,8.97
2023-10-31T14:16:18.450Z,8.04
2023-10-31T14:19:04.420Z,8.38
2023-10-31T14:21:49.858Z,8.55
2023-10-31T14:24:37.293Z,8.69
2023-10-31T14:27:22.718Z,8.39
2023-10-31T14:30:08.825Z,8.36
2023-10-31T14:32:54.733Z,8.43
2023-10-31T14:35:40.773Z,8.57
2023-10-31T14:38:26.721Z,8.43
2023-10-31T14:41:12.357Z,8.89
2023-10-31T14:43:57.816Z,8.86
2023-10-31T14:46:43.835Z,9.32
2023-10-31T14:49:29.641Z,8.89
2023-10-31T14:52:14.969Z,8.62
2023-10-31T14:55:00.180Z,8.95
2023-10-31T14:57:46.001Z,9.01
2023-10-31T15:00:31.243Z,8.82
2023-10-31T15:03:17.052Z,8.55
2023-10-31T15:06:02.906Z,8.85
2023-10-31T15:08:48.634Z,8.61
2023-10-31T15:11:34.389Z,8.71
2023-10-31T15:14:20.277Z,8.85
2023-10-31T15:17:06.106Z,8.50
2023-10-31T15:19:51.737Z,8.34
2023-10-31T15:22:37.602Z,8.83
2023-10-31T15:25:24.386Z,8.84
2023-10-31T15:28:10.065Z,7.95
2023-10-31T15:30:55.655Z,8.56
2023-10-31T15:33:41.312Z,8.44
2023-10-31T15:36:26.881Z,8.68
2023-10-31T15:39:12.444Z,8.84
2023-10-31T15:41:57.723Z,8.94
2023-10-31T15:44:43.399Z,8.70
2023-10-31T15:47:29.118Z,8.57
2023-10-31T15:50:15.102Z,8.69
2023-10-31T15:53:00.951Z,8.91
2023-10-31T15:55:46.977Z,8.95
2023-10-31T15:58:33.279Z,8.21
2023-10-31T16:01:18.824Z,8.38
2023-10-31T16:04:04.241Z,8.44
2023-10-31T16:06:49.645Z,8.72
2023-10-31T16:09:35.111Z,8.86
2023-10-31T16:12:20.535Z,8.59
2023-10-31T16:15:06.482Z,8.64
2023-10-31T16:17:51.937Z,8.42
2023-10-31T16:20:37.531Z,8.62
2023-10-31T16:23:23.363Z,8.01
2023-10-31T16:26:09.143Z,8.51
2023-10-31T16:28:54.477Z,8.46
2023-10-31T16:31:40.603Z,8.55
2023-10-31T16:34:26.854Z,8.56
2023-10-31T16:37:12.181Z,8.24
2023-10-31T16:39:57.719Z,8.30
2023-10-31T16:42:43.013Z,8.32
2023-10-31T16:46:30.337Z,6.72
2023-10-31T16:48:58.808Z,8.82
2023-10-31T16:51:44.645Z,8.76
2023-10-31T16:54:30.484Z,8.49
2023-10-31T16:57:15.805Z,8.51
2023-10-31T17:00:01.532Z,8.26
2023-10-31T17:02:47.207Z,8.60
2023-10-31T17:05:32.692Z,8.46
2023-10-31T17:08:18.503Z,7.85
2023-10-31T17:11:05.097Z,7.90
2023-10-31T17:13:51.235Z,8.57
2023-10-31T17:16:37.238Z,8.28
2023-10-31T17:19:22.784Z,8.46
2023-10-31T17:22:08.552Z,8.42
2023-10-31T17:24:55.952Z,8.16
2023-10-31T17:27:41.801Z,7.84
2023-10-31T17:30:27.664Z,8.45
2023-10-31T17:33:13.237Z,7.74
2023-10-31T17:35:58.541Z,8.57
2023-10-31T17:38:44.322Z,8.56
2023-10-31T17:41:30.146Z,8.10
2023-10-31T17:44:15.875Z,8.01
2023-10-31T17:47:01.444Z,7.93
2023-10-31T17:49:46.801Z,7.83
2023-10-31T17:52:32.368Z,8.28
2023-10-31T17:55:17.791Z,7.63
2023-10-31T17:58:03.049Z,7.48
2023-10-31T18:00:48.499Z,8.41
2023-10-31T18:03:34.230Z,8.03
2023-10-31T18:06:20.003Z,8.40
2023-10-31T18:09:05.493Z,8.18
2023-10-31T18:11:50.893Z,8.54
2023-10-31T18:14:36.235Z,8.18
2023-10-31T18:17:22.153Z,8.34
2023-10-31T18:20:08.651Z,5.37
2023-10-31T18:22:54.443Z,8.38
2023-10-31T18:25:40.028Z,8.31
2023-10-31T18:28:27.411Z,8.21
2023-10-31T18:31:13.178Z,8.28
2023-10-31T18:33:58.788Z,8.45
2023-10-31T18:36:44.186Z,8.20
2023-10-31T18:39:29.656Z,8.28
2023-10-31T18:42:15.359Z,8.30
2023-10-31T18:45:01.241Z,8.38
2023-10-31T18:47:47.393Z,8.71
2023-10-31T18:50:32.804Z,8.14
2023-10-31T18:53:18.440Z,8.19
2023-10-31T18:56:04.769Z,7.65
2023-10-31T18:58:57.264Z,7.98
2023-10-31T19:01:47.398Z,8.17
2023-10-31T19:04:32.572Z,8.30
2023-10-31T19:07:18.302Z,8.07
2023-10-31T19:10:03.827Z,8.16
2023-10-31T19:12:49.857Z,8.02
2023-10-31T19:15:35.740Z,7.66
2023-10-31T19:18:21.198Z,8.30
2023-10-31T19:21:07.343Z,7.84
2023-10-31T19:23:52.826Z,7.26
2023-10-31T19:26:39.322Z,7.70
2023-10-31T19:29:26.562Z,7.80
2023-10-31T19:32:12.188Z,7.34
2023-10-31T19:34:57.597Z,7.12
2023-10-31T19:37:43.364Z,7.65
2023-10-31T19:40:28.851Z,5.83
2023-10-31T19:43:14.538Z,7.44
2023-10-31T19:46:03.001Z,7.48
2023-10-31T19:48:49.367Z,6.80
2023-10-31T19:51:35.144Z,7.54
2023-10-31T19:54:20.654Z,7.20
2023-10-31T19:57:06.947Z,7.27
2023-10-31T19:59:52.726Z,6.96
2023-10-31T20:02:38.834Z,7.11
2023-10-31T20:05:24.425Z,7.23
2023-10-31T20:08:09.808Z,6.42
2023-10-31T20:11:01.305Z,7.30
2023-10-31T20:13:47.532Z,6.53
2023-10-31T20:16:32.994Z,6.54
2023-10-31T20:19:19.616Z,6.98
2023-10-31T20:22:06.508Z,6.95
2023-10-31T20:24:52.371Z,6.92
2023-10-31T20:27:37.450Z,6.91
2023-10-31T20:30:23.688Z,6.91
2023-10-31T20:33:09.168Z,6.73
2023-10-31T20:35:55.519Z,6.85
2023-10-31T20:38:41.152Z,7.14
2023-10-31T20:41:26.515Z,7.27
2023-10-31T20:44:12.128Z,7.17
2023-10-31T20:46:58.028Z,6.68
2023-10-31T20:49:43.354Z,7.26
2023-10-31T20:52:29.114Z,6.96
2023-10-31T20:55:14.455Z,7.68
2023-10-31T20:58:00.360Z,7.19
2023-10-31T21:00:46.219Z,7.07
2023-10-31T21:03:31.603Z,7.02
2023-10-31T21:06:17.306Z,7.26
2023-10-31T21:09:03.444Z,6.95
2023-10-31T21:11:49.181Z,6.86
2023-10-31T21:14:34.659Z,6.80
2023-10-31T21:17:21.355Z,7.24
2023-10-31T21:20:08.623Z,6.96
2023-10-31T21:22:55.161Z,7.13
2023-10-31T21:25:40.783Z,7.04
2023-10-31T21:28:26.346Z,7.49
2023-10-31T21:31:12.367Z,6.98
2023-10-31T21:33:58.195Z,7.51
2023-10-31T21:36:43.585Z,7.44
2023-10-31T21:39:29.801Z,7.31
2023-10-31T21:42:18.335Z,7.51
2023-10-31T21:45:04.310Z,7.42
2023-10-31T21:47:49.953Z,7.06
2023-10-31T21:50:35.495Z,7.14
2023-10-31T21:53:21.427Z,7.90
2023-10-31T21:56:07.354Z,7.54
2023-10-31T21:58:52.783Z,7.75
2023-10-31T22:01:38.239Z,7.41
2023-10-31T22:04:24.174Z,7.31
2023-10-31T22:07:09.905Z,7.23
2023-10-31T22:09:56.252Z,7.46
2023-10-31T22:12:42.104Z,7.35
2023-10-31T22:15:27.466Z,7.37
2023-10-31T22:18:13.191Z,7.07
2023-10-31T22:20:58.861Z,7.26
2023-10-31T22:23:44.388Z,6.82
2023-10-31T22:26:33.478Z,7.46
2023-10-31T22:29:19.043Z,7.46
2023-10-31T22:32:05.082Z,7.40
2023-10-31T22:34:50.449Z,6.52
2023-10-31T22:37:35.972Z,7.22
2023-10-31T22:40:22.129Z,7.53
2023-10-31T22:43:08.020Z,7.33
2023-10-31T22:45:53.405Z,7.71
2023-10-31T22:48:38.912Z,7.73
2023-10-31T22:51:24.706Z,7.34
2023-10-31T22:54:10.288Z,7.33
2023-10-31T22:56:55.770Z,6.84
2023-10-31T22:59:41.336Z,7.00
2023-10-31T23:02:27.119Z,7.38
2023-10-31T23:05:12.770Z,7.19
2023-10-31T23:07:58.167Z,6.42
2023-10-31T23:10:43.653Z,7.44
2023-10-31T23:13:29.343Z,7.27
2023-10-31T23:16:15.076Z,7.28
2023-10-31T23:19:00.568Z,7.37
2023-10-31T23:21:46.007Z,7.06
2023-10-31T23:24:31.392Z,6.82
2023-10-31T23:27:16.974Z,7.08
2023-10-31T23:30:02.524Z,7.03
2023-10-31T23:32:48.796Z,7.79
2023-10-31T23:35:34.260Z,7.19
2023-10-31T23:38:19.764Z,7.89
2023-10-31T23:41:06.345Z,7.45
2023-10-31T23:43:51.831Z,7.07
2023-10-31T23:46:38.357Z,7.30
2023-10-31T23:49:23.799Z,7.41
2023-10-31T23:52:09.564Z,7.79
2023-10-31T23:54:56.638Z,7.82
2023-10-31T23:57:42.090Z,7.71
